createdAt,value
2018-02-11T00:00:55.386Z,0.00
2018-02-11T00:01:55.461Z,0.00
2018-02-11T00:02:55.640Z,0.00
2018-02-11T00:03:55.588Z,0.00
2018-02-11T00:04:55.649Z,0.00
2018-02-11T00:05:55.750Z,0.00
2018-02-11T00:06:55.915Z,0.00
2018-02-11T00:07:55.843Z,0.00
2018-02-11T00:08:55.909Z,0.00
2018-02-11T00:09:56.020Z,0.00
2018-02-11T00:10:56.051Z,0.00
2018-02-11T00:11:56.108Z,0.00
2018-02-11T00:12:56.184Z,0.00
2018-02-11T00:13:56.236Z,0.00
2018-02-11T00:14:56.304Z,0.00
2018-02-11T00:15:56.463Z,0.00
2018-02-11T00:16:56.427Z,0.00
2018-02-11T00:17:56.593Z,0.00
2018-02-11T00:18:56.559Z,0.00
2018-02-11T00:19:56.665Z,0.00
2018-02-11T00:20:56.686Z,0.00
2018-02-11T00:21:56.764Z,0.00
2018-02-11T00:22:56.822Z,0.00
2018-02-11T00:23:56.884Z,0.00
2018-02-11T00:24:56.950Z,0.00
2018-02-11T00:25:57.025Z,0.00
2018-02-11T00:26:57.092Z,0.00
2018-02-11T00:27:57.161Z,0.00
2018-02-11T00:28:57.216Z,0.00
2018-02-11T00:29:57.287Z,0.00
2018-02-11T00:30:57.348Z,0.00
2018-02-11T00:31:57.412Z,0.00
2018-02-11T00:32:57.477Z,0.00
2018-02-11T00:33:57.552Z,0.00
2018-02-11T00:34:57.607Z,0.00
2018-02-11T00:35:57.673Z,0.00
2018-02-11T00:36:57.733Z,0.00
2018-02-11T00:37:57.807Z,0.00
2018-02-11T00:38:57.865Z,0.00
2018-02-11T00:39:57.934Z,0.00
2018-02-11T00:40:57.994Z,0.00
2018-02-11T00:41:58.064Z,0.00
2018-02-11T00:42:58.123Z,0.00
2018-02-11T00:43:58.214Z,0.00
2018-02-11T00:44:58.259Z,0.00
2018-02-11T00:45:58.346Z,0.00
2018-02-11T00:46:58.453Z,0.00
2018-02-11T00:47:58.457Z,0.00
2018-02-11T00:48:58.519Z,0.00
2018-02-11T00:49:58.590Z,0.00
2018-02-11T00:50:58.650Z,0.00
2018-02-11T00:51:58.714Z,0.00
2018-02-11T00:52:58.813Z,0.00
2018-02-11T00:53:59.001Z,0.00
2018-02-11T00:54:58.910Z,0.00
2018-02-11T00:55:58.972Z,0.00
2018-02-11T00:56:59.041Z,0.00
2018-02-11T00:57:59.111Z,0.00
2018-02-11T00:58:59.166Z,0.00
2018-02-11T00:59:59.232Z,0.00
2018-02-11T01:00:59.291Z,0.00
2018-02-11T01:01:59.362Z,0.00
2018-02-11T01:02:59.420Z,0.00
2018-02-11T01:03:59.495Z,0.00
2018-02-11T01:04:59.549Z,0.00
2018-02-11T01:05:59.758Z,0.00
2018-02-11T01:06:59.770Z,0.00
2018-02-11T01:07:59.750Z,0.00
2018-02-11T01:08:59.818Z,0.00
2018-02-11T01:09:59.873Z,0.00
2018-02-11T01:10:59.940Z,0.00
2018-02-11T01:12:00.012Z,0.00
2018-02-11T01:13:00.074Z,0.00
2018-02-11T01:14:00.142Z,0.00
2018-02-11T01:15:00.204Z,0.00
2018-02-11T01:16:00.264Z,0.00
2018-02-11T01:17:00.327Z,0.00
2018-02-11T01:18:00.398Z,0.00
2018-02-11T01:19:00.456Z,0.00
2018-02-11T01:20:00.519Z,0.00
2018-02-11T01:21:00.592Z,0.00
2018-02-11T01:22:00.651Z,0.00
2018-02-11T01:23:00.719Z,0.00
2018-02-11T01:24:00.774Z,0.00
2018-02-11T01:25:00.851Z,0.00
2018-02-11T01:26:00.903Z,0.00
2018-02-11T01:27:00.974Z,0.00
2018-02-11T01:28:01.047Z,0.00
2018-02-11T01:29:01.112Z,0.00
2018-02-11T01:30:01.167Z,0.00
2018-02-11T01:31:01.234Z,0.00
2018-02-11T01:32:01.330Z,0.00
2018-02-11T01:33:01.362Z,0.00
2018-02-11T01:34:01.431Z,0.00
2018-02-11T01:35:01.481Z,0.00
2018-02-11T01:36:01.635Z,0.00
2018-02-11T01:37:01.610Z,0.00
2018-02-11T01:38:01.695Z,0.00
2018-02-11T01:39:01.752Z,0.00
2018-02-11T01:40:01.987Z,0.00
2018-02-11T01:41:01.870Z,0.00
2018-02-11T01:42:01.941Z,0.00
2018-02-11T01:43:02.073Z,0.00
2018-02-11T01:44:02.065Z,0.00
2018-02-11T01:45:02.137Z,0.00
2018-02-11T01:46:02.202Z,0.00
2018-02-11T01:47:02.306Z,0.00
2018-02-11T01:48:02.335Z,0.00
2018-02-11T01:49:02.397Z,0.00
2018-02-11T01:50:02.453Z,0.00
2018-02-11T01:51:02.524Z,0.00
2018-02-11T01:52:02.579Z,0.00
2018-02-11T01:53:02.647Z,0.00
2018-02-11T01:54:02.725Z,0.00
2018-02-11T01:55:02.775Z,0.00
2018-02-11T01:56:02.836Z,0.00
2018-02-11T01:57:02.913Z,0.00
2018-02-11T01:58:02.984Z,0.00
2018-02-11T01:59:03.046Z,0.00
2018-02-11T02:00:03.101Z,0.00
2018-02-11T02:01:03.167Z,0.00
2018-02-11T02:02:03.226Z,0.00
2018-02-11T02:03:03.285Z,0.00
2018-02-11T02:04:03.360Z,0.00
2018-02-11T02:05:03.428Z,0.00
2018-02-11T02:06:03.487Z,0.00
2018-02-11T02:07:03.547Z,0.00
2018-02-11T02:08:03.617Z,0.00
2018-02-11T02:09:03.675Z,0.00
2018-02-11T02:10:03.748Z,0.00
2018-02-11T02:11:03.804Z,0.00
2018-02-11T02:12:03.871Z,0.00
2018-02-11T02:13:03.927Z,0.00
2018-02-11T02:14:04.001Z,0.00
2018-02-11T02:15:04.061Z,0.00
2018-02-11T02:16:04.120Z,0.00
2018-02-11T02:17:04.187Z,0.00
2018-02-11T02:18:04.299Z,0.00
2018-02-11T02:19:04.314Z,0.00
2018-02-11T02:20:04.387Z,0.00
2018-02-11T02:21:04.458Z,0.00
2018-02-11T02:22:04.507Z,0.00
2018-02-11T02:23:04.572Z,0.00
2018-02-11T02:24:04.647Z,0.00
2018-02-11T02:25:04.714Z,0.00
2018-02-11T02:26:04.765Z,0.00
2018-02-11T02:27:04.832Z,0.00
2018-02-11T02:28:04.901Z,0.00
2018-02-11T02:29:04.965Z,0.00
2018-02-11T02:30:05.033Z,0.00
2018-02-11T02:31:05.111Z,0.00
2018-02-11T02:32:05.150Z,0.00
2018-02-11T02:33:05.235Z,0.00
2018-02-11T02:34:05.286Z,0.00
2018-02-11T02:35:05.349Z,0.00
2018-02-11T02:36:05.414Z,0.00
2018-02-11T02:37:05.469Z,0.00
2018-02-11T02:38:05.551Z,0.00
2018-02-11T02:39:05.602Z,0.00
2018-02-11T02:40:05.671Z,0.00
2018-02-11T02:41:05.736Z,0.00
2018-02-11T02:42:05.793Z,0.00
2018-02-11T02:43:05.868Z,0.00
2018-02-11T02:44:05.949Z,0.00
2018-02-11T02:45:05.983Z,0.00
2018-02-11T02:46:06.051Z,0.00
2018-02-11T02:47:06.107Z,0.00
2018-02-11T02:48:06.175Z,0.00
2018-02-11T02:49:06.247Z,0.00
2018-02-11T02:50:06.303Z,0.00
2018-02-11T02:51:06.385Z,0.00
2018-02-11T02:52:06.430Z,0.00
2018-02-11T02:53:06.492Z,0.00
2018-02-11T02:54:06.568Z,0.00
2018-02-11T02:55:06.623Z,0.00
2018-02-11T02:56:06.694Z,0.00
2018-02-11T02:57:06.758Z,0.00
2018-02-11T02:58:06.819Z,0.00
2018-02-11T02:59:06.888Z,0.00
2018-02-11T03:00:06.956Z,0.00
2018-02-11T03:01:07.012Z,0.00
2018-02-11T03:02:07.076Z,0.00
2018-02-11T03:03:07.137Z,0.00
2018-02-11T03:04:07.233Z,0.00
2018-02-11T03:05:07.263Z,0.00
2018-02-11T03:06:07.334Z,0.00
2018-02-11T03:07:07.396Z,0.00
2018-02-11T03:08:07.457Z,0.00
2018-02-11T03:09:07.531Z,0.00
2018-02-11T03:10:07.586Z,0.00
2018-02-11T03:11:07.651Z,0.00
2018-02-11T03:12:07.726Z,0.00
2018-02-11T03:13:07.782Z,0.00
2018-02-11T03:14:07.844Z,0.00
2018-02-11T03:15:07.904Z,0.00
2018-02-11T03:16:07.971Z,0.00
2018-02-11T03:17:08.042Z,0.00
2018-02-11T03:18:08.103Z,0.00
2018-02-11T03:19:08.166Z,0.00
2018-02-11T03:20:08.229Z,0.00
2018-02-11T03:21:08.297Z,0.00
2018-02-11T03:22:08.359Z,0.00
2018-02-11T03:23:08.425Z,0.00
2018-02-11T03:24:08.491Z,0.00
2018-02-11T03:25:08.564Z,0.00
2018-02-11T03:26:08.617Z,0.00
2018-02-11T03:27:08.683Z,0.00
2018-02-11T03:28:08.750Z,0.00
2018-02-11T03:29:08.812Z,0.00
2018-02-11T03:30:08.876Z,0.00
2018-02-11T03:31:08.949Z,0.00
2018-02-11T03:32:09.006Z,0.00
2018-02-11T03:33:09.066Z,0.00
2018-02-11T03:34:09.138Z,0.00
2018-02-11T03:35:09.203Z,0.00
2018-02-11T03:36:09.266Z,0.00
2018-02-11T03:37:09.325Z,0.00
2018-02-11T03:38:09.395Z,0.00
2018-02-11T03:39:09.454Z,0.00
2018-02-11T03:40:09.526Z,0.00
2018-02-11T03:41:09.585Z,0.00
2018-02-11T03:42:09.652Z,0.00
2018-02-11T03:43:09.713Z,0.00
2018-02-11T03:44:09.778Z,0.00
2018-02-11T03:45:09.840Z,0.00
2018-02-11T03:46:09.913Z,0.00
2018-02-11T03:47:10.038Z,0.00
2018-02-11T03:48:10.039Z,0.00
2018-02-11T03:49:10.102Z,0.00
2018-02-11T03:50:10.163Z,0.00
2018-02-11T03:51:10.232Z,0.00
2018-02-11T03:52:10.290Z,0.00
2018-02-11T03:53:10.359Z,0.00
2018-02-11T03:54:10.424Z,0.00
2018-02-11T03:55:10.487Z,0.00
2018-02-11T03:56:10.542Z,0.00
2018-02-11T03:57:10.611Z,0.00
2018-02-11T03:58:10.679Z,0.00
2018-02-11T03:59:10.748Z,0.00
2018-02-11T04:00:10.815Z,0.00
2018-02-11T04:01:10.871Z,0.00
2018-02-11T04:02:10.934Z,0.00
2018-02-11T04:03:10.997Z,0.00
2018-02-11T04:04:11.064Z,0.00
2018-02-11T04:05:11.130Z,0.00
2018-02-11T04:06:11.191Z,0.00
2018-02-11T04:07:11.255Z,0.00
2018-02-11T04:08:11.318Z,0.00
2018-02-11T04:09:11.382Z,0.00
2018-02-11T04:10:11.450Z,0.00
2018-02-11T04:11:11.525Z,0.00
2018-02-11T04:12:11.579Z,0.00
2018-02-11T04:13:11.636Z,0.00
2018-02-11T04:14:11.708Z,0.00
2018-02-11T04:15:11.768Z,0.00
2018-02-11T04:16:11.835Z,0.00
2018-02-11T04:17:11.903Z,0.00
2018-02-11T04:18:11.964Z,0.00
2018-02-11T04:19:12.028Z,0.00
2018-02-11T04:20:12.087Z,0.00
2018-02-11T04:21:12.156Z,0.00
2018-02-11T04:22:12.220Z,0.00
2018-02-11T04:23:12.288Z,0.00
2018-02-11T04:24:12.357Z,0.00
2018-02-11T04:25:12.412Z,0.00
2018-02-11T04:26:12.479Z,0.00
2018-02-11T04:27:12.540Z,0.00
2018-02-11T04:28:12.611Z,0.00
2018-02-11T04:29:12.673Z,0.00
2018-02-11T04:30:12.736Z,0.00
2018-02-11T04:31:12.795Z,0.00
2018-02-11T04:32:12.864Z,0.00
2018-02-11T04:33:12.930Z,0.00
2018-02-11T04:34:12.995Z,0.00
2018-02-11T04:35:13.054Z,0.00
2018-02-11T04:36:13.120Z,0.00
2018-02-11T04:37:13.190Z,0.00
2018-02-11T04:38:13.246Z,0.00
2018-02-11T04:39:13.315Z,0.00
2018-02-11T04:40:13.376Z,0.00
2018-02-11T04:41:13.442Z,0.00
2018-02-11T04:42:13.505Z,0.00
2018-02-11T04:43:13.568Z,0.00
2018-02-11T04:44:13.633Z,0.00
2018-02-11T04:45:13.700Z,0.00
2018-02-11T04:46:13.761Z,0.00
2018-02-11T04:47:13.823Z,0.00
2018-02-11T04:48:13.887Z,0.00
2018-02-11T04:49:13.969Z,0.00
2018-02-11T04:50:14.017Z,0.00
2018-02-11T04:51:14.077Z,0.00
2018-02-11T04:52:14.149Z,0.00
2018-02-11T04:53:14.217Z,0.00
2018-02-11T04:54:14.274Z,0.00
2018-02-11T04:55:14.335Z,0.00
2018-02-11T04:56:14.404Z,0.00
2018-02-11T04:57:14.469Z,0.00
2018-02-11T04:58:14.533Z,0.00
2018-02-11T04:59:14.599Z,0.00
2018-02-11T05:00:14.661Z,0.00
2018-02-11T05:01:14.724Z,0.00
2018-02-11T05:02:14.788Z,0.00
2018-02-11T05:03:14.854Z,0.00
2018-02-11T05:04:14.917Z,0.00
2018-02-11T05:05:14.979Z,0.00
2018-02-11T05:06:15.047Z,0.00
2018-02-11T05:07:15.110Z,0.00
2018-02-11T05:08:15.171Z,0.00
2018-02-11T05:09:15.236Z,0.00
2018-02-11T05:10:15.309Z,0.00
2018-02-11T05:11:15.368Z,0.00
2018-02-11T05:12:15.447Z,0.00
2018-02-11T05:13:15.493Z,0.00
2018-02-11T05:14:15.561Z,0.00
2018-02-11T05:15:15.626Z,0.00
2018-02-11T05:16:15.693Z,0.00
2018-02-11T05:17:15.769Z,0.00
2018-02-11T05:18:15.823Z,0.00
2018-02-11T05:19:15.884Z,0.00
2018-02-11T05:20:15.945Z,0.00
2018-02-11T05:21:16.056Z,0.00
2018-02-11T05:22:16.077Z,0.00
2018-02-11T05:23:16.138Z,0.00
2018-02-11T05:24:16.209Z,0.00
2018-02-11T05:25:16.272Z,0.00
2018-02-11T05:26:16.332Z,0.00
2018-02-11T05:27:16.395Z,0.00
2018-02-11T05:28:16.467Z,0.00
2018-02-11T05:29:16.522Z,0.00
2018-02-11T05:30:16.606Z,0.00
2018-02-11T05:31:16.655Z,0.00
2018-02-11T05:32:16.713Z,0.00
2018-02-11T05:33:16.781Z,0.00
2018-02-11T05:34:16.838Z,0.00
2018-02-11T05:35:16.906Z,0.00
2018-02-11T05:36:16.975Z,0.00
2018-02-11T05:37:17.038Z,0.00
2018-02-11T05:38:17.107Z,0.00
2018-02-11T05:39:17.168Z,0.00
2018-02-11T05:40:17.227Z,0.00
2018-02-11T05:41:17.294Z,0.00
2018-02-11T05:42:17.356Z,0.00
2018-02-11T05:43:17.426Z,0.00
2018-02-11T05:44:17.487Z,0.00
2018-02-11T05:45:17.549Z,0.00
2018-02-11T05:46:17.614Z,0.00
2018-02-11T05:47:17.674Z,0.00
2018-02-11T05:48:17.745Z,0.00
2018-02-11T05:49:17.806Z,0.00
2018-02-11T05:50:17.883Z,0.00
2018-02-11T05:51:17.942Z,0.00
2018-02-11T05:52:17.998Z,0.00
2018-02-11T05:53:18.062Z,0.00
2018-02-11T05:54:18.126Z,0.00
2018-02-11T05:55:18.195Z,0.00
2018-02-11T05:56:18.257Z,0.00
2018-02-11T05:57:18.320Z,0.00
2018-02-11T05:58:18.391Z,0.00
2018-02-11T05:59:18.445Z,0.00
2018-02-11T06:00:18.533Z,0.00
2018-02-11T06:01:18.619Z,0.00
2018-02-11T06:02:18.643Z,0.00
2018-02-11T06:03:18.703Z,0.00
2018-02-11T06:04:18.769Z,0.00
2018-02-11T06:05:18.832Z,0.00
2018-02-11T06:06:18.897Z,0.00
2018-02-11T06:07:18.961Z,0.00
2018-02-11T06:08:19.032Z,0.00
2018-02-11T06:09:19.095Z,0.00
2018-02-11T06:10:19.156Z,0.00
2018-02-11T06:11:19.222Z,0.00
2018-02-11T06:12:19.287Z,0.00
2018-02-11T06:13:19.348Z,0.00
2018-02-11T06:14:19.405Z,0.00
2018-02-11T06:15:19.474Z,0.00
2018-02-11T06:16:19.546Z,0.00
2018-02-11T06:17:19.602Z,0.00
2018-02-11T06:18:19.666Z,0.00
2018-02-11T06:19:19.732Z,0.00
2018-02-11T06:20:19.796Z,0.00
2018-02-11T06:21:19.859Z,0.00
2018-02-11T06:22:19.923Z,0.00
2018-02-11T06:23:19.988Z,0.00
2018-02-11T06:24:20.057Z,4.00
2018-02-11T06:25:20.114Z,4.00
2018-02-11T06:26:20.177Z,0.00
2018-02-11T06:27:20.256Z,0.00
2018-02-11T06:28:20.306Z,4.00
2018-02-11T06:29:20.417Z,4.00
2018-02-11T06:30:20.433Z,4.00
2018-02-11T06:31:20.501Z,4.00
2018-02-11T06:32:20.566Z,8.00
2018-02-11T06:33:20.631Z,8.00
2018-02-11T06:34:20.696Z,12.00
2018-02-11T06:35:20.755Z,12.00
2018-02-11T06:36:20.827Z,12.00
2018-02-11T06:37:20.897Z,16.00
2018-02-11T06:38:20.960Z,16.00
2018-02-11T06:39:21.016Z,20.00
2018-02-11T06:40:21.078Z,20.00
2018-02-11T06:41:21.149Z,20.00
2018-02-11T06:42:21.213Z,20.00
2018-02-11T06:43:21.277Z,24.00
2018-02-11T06:44:21.337Z,28.00
2018-02-11T06:45:21.404Z,32.00
2018-02-11T06:46:21.465Z,40.00
2018-02-11T06:47:21.531Z,40.00
2018-02-11T06:48:21.593Z,48.00
2018-02-11T06:49:21.659Z,56.00
2018-02-11T06:50:21.729Z,56.00
2018-02-11T06:51:21.792Z,52.00
2018-02-11T06:52:21.856Z,44.00
2018-02-11T06:53:21.916Z,44.00
2018-02-11T06:54:21.985Z,44.00
2018-02-11T06:55:22.046Z,44.00
2018-02-11T06:56:22.109Z,52.00
2018-02-11T06:57:22.194Z,60.00
2018-02-11T06:58:22.239Z,64.00
2018-02-11T06:59:22.307Z,72.00
2018-02-11T07:00:22.368Z,80.00
2018-02-11T07:01:22.435Z,84.00
2018-02-11T07:02:22.497Z,84.00
2018-02-11T07:03:22.556Z,84.00
2018-02-11T07:04:22.626Z,92.00
2018-02-11T07:05:22.691Z,96.00
2018-02-11T07:06:22.754Z,100.00
2018-02-11T07:07:22.820Z,112.00
2018-02-11T07:08:22.915Z,120.00
2018-02-11T07:09:22.949Z,128.00
2018-02-11T07:10:23.009Z,128.00
2018-02-11T07:11:23.076Z,136.00
2018-02-11T07:12:23.140Z,144.00
2018-02-11T07:13:23.203Z,148.00
2018-02-11T07:14:23.266Z,156.00
2018-02-11T07:15:23.331Z,164.00
2018-02-11T07:16:23.394Z,176.00
2018-02-11T07:17:23.469Z,188.00
2018-02-11T07:18:23.533Z,220.00
2018-02-11T07:19:23.589Z,236.00
2018-02-11T07:20:23.656Z,220.00
2018-02-11T07:21:23.722Z,220.00
2018-02-11T07:22:23.785Z,224.00
2018-02-11T07:23:23.846Z,236.00
2018-02-11T07:24:23.919Z,240.00
2018-02-11T07:25:23.981Z,240.00
2018-02-11T07:26:24.041Z,228.00
2018-02-11T07:27:24.117Z,224.00
2018-02-11T07:28:24.177Z,240.00
2018-02-11T07:29:24.228Z,276.00
2018-02-11T07:30:24.301Z,324.00
2018-02-11T07:31:24.365Z,352.00
2018-02-11T07:32:24.440Z,368.00
2018-02-11T07:33:24.492Z,376.00
2018-02-11T07:34:24.559Z,368.00
2018-02-11T07:35:24.623Z,364.00
2018-02-11T07:36:24.692Z,368.00
2018-02-11T07:37:24.761Z,388.00
2018-02-11T07:38:24.812Z,412.00
2018-02-11T07:39:24.882Z,404.00
2018-02-11T07:40:24.949Z,412.00
2018-02-11T07:41:25.013Z,388.00
2018-02-11T07:42:25.082Z,424.00
2018-02-11T07:43:25.136Z,516.00
2018-02-11T07:44:25.207Z,596.00
2018-02-11T07:45:25.274Z,588.00
2018-02-11T07:46:25.338Z,576.00
2018-02-11T07:47:25.406Z,548.00
2018-02-11T07:48:25.469Z,500.00
2018-02-11T07:49:25.529Z,460.00
2018-02-11T07:50:25.594Z,452.00
2018-02-11T07:51:25.662Z,472.00
2018-02-11T07:52:25.722Z,568.00
2018-02-11T07:53:25.799Z,708.00
2018-02-11T07:54:25.861Z,708.00
2018-02-11T07:55:25.920Z,688.00
2018-02-11T07:56:25.986Z,756.00
2018-02-11T07:57:26.054Z,928.00
2018-02-11T07:58:26.108Z,1072.00
2018-02-11T07:59:26.183Z,1080.00
2018-02-11T08:00:26.245Z,1044.00
2018-02-11T08:01:26.308Z,964.00
2018-02-11T08:02:26.385Z,940.00
2018-02-11T08:03:26.435Z,1008.00
2018-02-11T08:04:26.507Z,1056.00
2018-02-11T08:05:26.565Z,1052.00
2018-02-11T08:06:26.629Z,980.00
2018-02-11T08:07:26.696Z,908.00
2018-02-11T08:08:26.933Z,792.00
2018-02-11T08:09:26.825Z,704.00
2018-02-11T08:10:26.900Z,640.00
2018-02-11T08:11:26.957Z,640.00
2018-02-11T08:12:27.020Z,624.00
2018-02-11T08:13:27.086Z,660.00
2018-02-11T08:14:27.151Z,764.00
2018-02-11T08:15:27.216Z,884.00
2018-02-11T08:16:27.285Z,924.00
2018-02-11T08:17:27.345Z,896.00
2018-02-11T08:18:27.435Z,908.00
2018-02-11T08:19:27.478Z,944.00
2018-02-11T08:20:27.541Z,956.00
2018-02-11T08:21:27.612Z,852.00
2018-02-11T08:22:27.666Z,792.00
2018-02-11T08:23:27.743Z,736.00
2018-02-11T08:24:27.801Z,668.00
2018-02-11T08:25:27.873Z,648.00
2018-02-11T08:26:27.959Z,652.00
2018-02-11T08:27:28.076Z,700.00
2018-02-11T08:28:28.064Z,760.00
2018-02-11T08:29:28.128Z,816.00
2018-02-11T08:30:28.213Z,808.00
2018-02-11T08:31:28.265Z,780.00
2018-02-11T08:32:28.329Z,800.00
2018-02-11T08:33:28.387Z,848.00
2018-02-11T08:34:28.453Z,880.00
2018-02-11T08:35:28.516Z,920.00
2018-02-11T08:36:28.585Z,904.00
2018-02-11T08:37:28.646Z,896.00
2018-02-11T08:38:28.715Z,916.00
2018-02-11T08:39:28.773Z,904.00
2018-02-11T08:40:28.855Z,856.00
2018-02-11T08:41:28.906Z,832.00
2018-02-11T08:42:28.972Z,832.00
2018-02-11T08:43:29.040Z,884.00
2018-02-11T08:44:29.209Z,924.00
2018-02-11T08:45:29.167Z,968.00
2018-02-11T08:46:29.233Z,992.00
2018-02-11T08:47:29.300Z,1008.00
2018-02-11T08:48:29.361Z,1072.00
2018-02-11T08:49:29.431Z,1116.00
2018-02-11T08:50:29.489Z,1112.00
2018-02-11T08:51:29.555Z,1020.00
2018-02-11T08:52:29.622Z,960.00
2018-02-11T08:53:29.686Z,936.00
2018-02-11T08:54:29.755Z,952.00
2018-02-11T08:55:29.820Z,992.00
2018-02-11T08:56:29.887Z,1020.00
2018-02-11T08:57:29.962Z,1036.00
2018-02-11T08:58:30.014Z,1032.00
2018-02-11T08:59:30.078Z,1036.00
2018-02-11T09:00:30.149Z,1036.00
2018-02-11T09:01:30.219Z,1080.00
2018-02-11T09:02:30.275Z,1120.00
2018-02-11T09:03:30.342Z,1164.00
2018-02-11T09:04:30.407Z,1172.00
2018-02-11T09:05:30.471Z,1168.00
2018-02-11T09:06:30.538Z,1248.00
2018-02-11T09:07:30.606Z,1276.00
2018-02-11T09:08:30.664Z,1312.00
2018-02-11T09:09:30.731Z,1392.00
2018-02-11T09:10:30.800Z,1444.00
2018-02-11T09:11:30.865Z,1552.00
2018-02-11T09:12:30.925Z,1696.00
2018-02-11T09:13:30.996Z,1892.00
2018-02-11T09:14:31.065Z,2104.00
2018-02-11T09:15:31.141Z,2088.00
2018-02-11T09:16:31.191Z,2076.00
2018-02-11T09:17:31.252Z,2088.00
2018-02-11T09:18:31.321Z,2100.00
2018-02-11T09:19:31.389Z,2556.00
2018-02-11T09:20:31.452Z,3128.00
2018-02-11T09:21:31.523Z,3132.00
2018-02-11T09:22:31.581Z,2912.00
2018-02-11T09:23:31.650Z,2444.00
2018-02-11T09:24:31.720Z,2216.00
2018-02-11T09:25:31.780Z,1992.00
2018-02-11T09:26:31.849Z,1860.00
2018-02-11T09:27:31.912Z,1856.00
2018-02-11T09:28:31.977Z,2024.00
2018-02-11T09:29:32.048Z,2228.00
2018-02-11T09:30:32.113Z,2128.00
2018-02-11T09:31:32.168Z,2096.00
2018-02-11T09:32:32.247Z,2020.00
2018-02-11T09:33:32.307Z,2180.00
2018-02-11T09:34:32.372Z,2516.00
2018-02-11T09:35:32.443Z,2656.00
2018-02-11T09:36:32.529Z,3404.00
2018-02-11T09:37:32.566Z,3040.00
2018-02-11T09:38:32.639Z,3080.00
2018-02-11T09:39:32.702Z,2584.00
2018-02-11T09:40:32.760Z,2304.00
2018-02-11T09:41:32.836Z,2084.00
2018-02-11T09:42:32.901Z,1864.00
2018-02-11T09:43:32.970Z,1832.00
2018-02-11T09:44:33.036Z,1692.00
2018-02-11T09:45:33.098Z,1652.00
2018-02-11T09:46:33.167Z,1760.00
2018-02-11T09:47:33.233Z,1924.00
2018-02-11T09:48:33.294Z,1696.00
2018-02-11T09:49:33.364Z,1584.00
2018-02-11T09:50:33.433Z,1556.00
2018-02-11T09:51:33.494Z,1520.00
2018-02-11T09:52:33.560Z,1636.00
2018-02-11T09:53:33.637Z,1880.00
2018-02-11T09:54:33.758Z,2112.00
2018-02-11T09:55:33.763Z,2328.00
2018-02-11T09:56:33.818Z,2688.00
2018-02-11T09:57:33.904Z,3640.00
2018-02-11T09:58:33.956Z,3328.00
2018-02-11T09:59:34.114Z,3084.00
2018-02-11T10:00:34.092Z,3416.00
2018-02-11T10:01:34.165Z,4224.00
2018-02-11T10:02:34.225Z,4392.00
2018-02-11T10:03:34.295Z,4112.00
2018-02-11T10:04:34.349Z,4512.00
2018-02-11T10:05:34.425Z,4620.00
2018-02-11T10:06:34.577Z,3740.00
2018-02-11T10:07:34.560Z,3172.00
2018-02-11T10:08:34.792Z,2748.00
2018-02-11T10:09:38.689Z,2844.00
2018-02-11T10:10:35.799Z,3952.00
2018-02-11T10:11:34.910Z,4896.00
2018-02-11T10:12:34.877Z,4484.00
2018-02-11T10:13:34.973Z,3776.00
2018-02-11T10:14:35.021Z,3168.00
2018-02-11T10:15:35.087Z,3112.00
2018-02-11T10:16:35.153Z,3092.00
2018-02-11T10:17:35.219Z,2704.00
2018-02-11T10:18:35.325Z,2536.00
2018-02-11T10:19:35.349Z,2140.00
2018-02-11T10:20:35.456Z,2484.00
2018-02-11T10:21:35.489Z,2472.00
2018-02-11T10:22:35.609Z,2120.00
2018-02-11T10:23:35.620Z,2088.00
2018-02-11T10:24:35.693Z,2148.00
2018-02-11T10:25:35.750Z,2444.00
2018-02-11T10:26:35.816Z,3568.00
2018-02-11T10:27:35.904Z,4228.00
2018-02-11T10:28:35.957Z,3640.00
2018-02-11T10:29:36.045Z,3016.00
2018-02-11T10:30:36.084Z,3472.00
2018-02-11T10:31:36.155Z,3356.00
2018-02-11T10:32:36.219Z,4348.00
2018-02-11T10:33:36.290Z,5104.00
2018-02-11T10:34:36.377Z,5476.00
2018-02-11T10:35:36.428Z,5420.00
2018-02-11T10:36:36.485Z,4112.00
2018-02-11T10:37:36.561Z,3028.00
2018-02-11T10:38:36.615Z,2160.00
2018-02-11T10:39:36.691Z,1744.00
2018-02-11T10:40:36.753Z,1304.00
2018-02-11T10:41:36.822Z,1180.00
2018-02-11T10:42:36.895Z,1052.00
2018-02-11T10:43:36.955Z,968.00
2018-02-11T10:44:37.020Z,1120.00
2018-02-11T10:45:37.099Z,1520.00
2018-02-11T10:46:37.154Z,1480.00
2018-02-11T10:47:37.230Z,1628.00
2018-02-11T10:48:37.285Z,1932.00
2018-02-11T10:49:37.360Z,1896.00
2018-02-11T10:50:37.531Z,2396.00
2018-02-11T10:51:37.490Z,2804.00
2018-02-11T10:52:37.556Z,2548.00
2018-02-11T10:53:37.625Z,2648.00
2018-02-11T10:54:37.693Z,2660.00
2018-02-11T10:55:37.760Z,2096.00
2018-02-11T10:56:37.832Z,1656.00
2018-02-11T10:57:37.890Z,1316.00
2018-02-11T10:58:37.953Z,1056.00
2018-02-11T10:59:38.040Z,1256.00
2018-02-11T11:00:38.090Z,1196.00
2018-02-11T11:01:38.158Z,1040.00
2018-02-11T11:02:38.224Z,1064.00
2018-02-11T11:03:38.309Z,1224.00
2018-02-11T11:04:38.356Z,1336.00
2018-02-11T11:05:38.419Z,1464.00
2018-02-11T11:06:38.482Z,1416.00
2018-02-11T11:07:38.555Z,1408.00
2018-02-11T11:08:38.620Z,1368.00
2018-02-11T11:09:38.855Z,1276.00
2018-02-11T11:10:38.755Z,1560.00
2018-02-11T11:11:38.830Z,1952.00
2018-02-11T11:12:38.891Z,1864.00
2018-02-11T11:13:38.973Z,2196.00
2018-02-11T11:14:39.023Z,2472.00
2018-02-11T11:15:39.088Z,2128.00
2018-02-11T11:16:39.209Z,2056.00
2018-02-11T11:17:39.290Z,1712.00
2018-02-11T11:18:39.298Z,1344.00
2018-02-11T11:19:39.358Z,1480.00
2018-02-11T11:20:39.429Z,1616.00
2018-02-11T11:21:39.494Z,1672.00
2018-02-11T11:22:39.558Z,2060.00
2018-02-11T11:23:39.725Z,2732.00
2018-02-11T11:24:39.699Z,2320.00
2018-02-11T11:25:39.765Z,3148.00
2018-02-11T11:26:39.821Z,4792.00
2018-02-11T11:27:39.896Z,5004.00
2018-02-11T11:28:39.955Z,5400.00
2018-02-11T11:29:40.032Z,6100.00
2018-02-11T11:30:40.102Z,5684.00
2018-02-11T11:31:40.162Z,6712.00
2018-02-11T11:32:40.225Z,5928.00
2018-02-11T11:33:40.303Z,4656.00
2018-02-11T11:34:40.359Z,4132.00
2018-02-11T11:35:40.421Z,3812.00
2018-02-11T11:36:40.493Z,3596.00
2018-02-11T11:37:40.563Z,3416.00
2018-02-11T11:38:40.659Z,3728.00
2018-02-11T11:39:40.696Z,3652.00
2018-02-11T11:40:40.761Z,3032.00
2018-02-11T11:41:40.831Z,3316.00
2018-02-11T11:42:40.913Z,3516.00
2018-02-11T11:43:40.963Z,3808.00
2018-02-11T11:44:41.029Z,3800.00
2018-02-11T11:45:41.091Z,3476.00
2018-02-11T11:46:41.168Z,2456.00
2018-02-11T11:47:41.234Z,2008.00
2018-02-11T11:48:41.302Z,1812.00
2018-02-11T11:49:41.372Z,1180.00
2018-02-11T11:50:41.433Z,1256.00
2018-02-11T11:51:41.492Z,1384.00
2018-02-11T11:52:41.566Z,1772.00
2018-02-11T11:53:41.635Z,1844.00
2018-02-11T11:54:41.704Z,1960.00
2018-02-11T11:55:41.846Z,2204.00
2018-02-11T11:56:41.962Z,2456.00
2018-02-11T11:57:41.903Z,2780.00
2018-02-11T11:58:41.990Z,3032.00
2018-02-11T11:59:42.058Z,3272.00
2018-02-11T12:00:42.103Z,3472.00
2018-02-11T12:01:42.169Z,3192.00
2018-02-11T12:02:42.239Z,3096.00
2018-02-11T12:03:42.309Z,3132.00
2018-02-11T12:04:42.370Z,3468.00
2018-02-11T12:05:42.433Z,3508.00
2018-02-11T12:06:42.515Z,3200.00
2018-02-11T12:07:42.570Z,3376.00
2018-02-11T12:08:42.642Z,2864.00
2018-02-11T12:09:42.701Z,3096.00
2018-02-11T12:10:42.876Z,3164.00
2018-02-11T12:11:42.847Z,3620.00
2018-02-11T12:12:42.925Z,4160.00
2018-02-11T12:13:42.982Z,3780.00
2018-02-11T12:14:43.177Z,3536.00
2018-02-11T12:15:43.118Z,4140.00
2018-02-11T12:16:43.183Z,6088.00
2018-02-11T12:17:43.260Z,6328.00
2018-02-11T12:18:43.317Z,5544.00
2018-02-11T12:19:43.377Z,5076.00
2018-02-11T12:20:43.446Z,5356.00
2018-02-11T12:21:43.509Z,5468.00
2018-02-11T12:22:43.579Z,4928.00
2018-02-11T12:23:43.648Z,5292.00
2018-02-11T12:24:43.723Z,6188.00
2018-02-11T12:25:43.782Z,8416.00
2018-02-11T12:26:43.847Z,9864.00
2018-02-11T12:27:43.922Z,10884.00
2018-02-11T12:28:43.999Z,14108.00
2018-02-11T12:29:44.054Z,24096.00
2018-02-11T12:30:44.122Z,10724.00
2018-02-11T12:31:44.195Z,9676.00
2018-02-11T12:32:44.254Z,12044.00
2018-02-11T12:33:44.325Z,11768.00
2018-02-11T12:34:44.395Z,9388.00
2018-02-11T12:35:44.452Z,6944.00
2018-02-11T12:36:44.527Z,4856.00
2018-02-11T12:37:44.590Z,3432.00
2018-02-11T12:38:44.663Z,2436.00
2018-02-11T12:39:44.734Z,2348.00
2018-02-11T12:40:44.834Z,2572.00
2018-02-11T12:41:44.874Z,2532.00
2018-02-11T12:42:44.937Z,2388.00
2018-02-11T12:43:45.005Z,2212.00
2018-02-11T12:44:45.083Z,2064.00
2018-02-11T12:45:45.163Z,1924.00
2018-02-11T12:46:45.209Z,1712.00
2018-02-11T12:47:45.272Z,1668.00